sensor_id;sensor_type;location;lat;lon;timestamp;pressure;altitude;pressure_sealevel;temperature;humidity
5595;BME280;1003;48.002;7.788;2024-01-25T00:01:47;101413.94;;;10.20;100.00
5595;BME280;1003;48.002;7.788;2024-01-25T00:04:14;101421.53;;;10.21;100.00
5595;BME280;1003;48.002;7.788;2024-01-25T00:06:41;101432.34;;;10.19;100.00
5595;BME280;1003;48.002;7.788;2024-01-25T00:09:08;101422.31;;;10.19;100.00
5595;BME280;1003;48.002;7.788;2024-01-25T00:11:35;101417.34;;;10.22;100.00
5595;BME280;1003;48.002;7.788;2024-01-25T00:14:02;101414.97;;;10.25;100.00
5595;BME280;1003;48.002;7.788;2024-01-25T00:16:30;101419.13;;;10.24;100.00
5595;BME280;1003;48.002;7.788;2024-01-25T00:18:57;101415.72;;;10.22;100.00
5595;BME280;1003;48.002;7.788;2024-01-25T00:21:24;101416.50;;;10.21;100.00
5595;BME280;1003;48.002;7.788;2024-01-25T00:23:51;101422.31;;;10.19;100.00
5595;BME280;1003;48.002;7.788;2024-01-25T00:26:18;101429.13;;;10.23;100.00
5595;BME280;1003;48.002;7.788;2024-01-25T00:28:44;101428.34;;;10.24;100.00
5595;BME280;1003;48.002;7.788;2024-01-25T00:31:11;101413.19;;;10.22;100.00
5595;BME280;1003;48.002;7.788;2024-01-25T00:33:40;101412.59;;;10.31;100.00
5595;BME280;1003;48.002;7.788;2024-01-25T00:36:09;101410.09;;;10.31;100.00
5595;BME280;1003;48.002;7.788;2024-01-25T00:38:36;101415.84;;;10.27;100.00
5595;BME280;1003;48.002;7.788;2024-01-25T00:41:08;101404.94;;;10.27;100.00
5595;BME280;1003;48.002;7.788;2024-01-25T00:43:36;101404.09;;;10.26;100.00
5595;BME280;1003;48.002;7.788;2024-01-25T00:46:03;101400.69;;;10.24;100.00
5595;BME280;1003;48.002;7.788;2024-01-25T00:48:31;101403.22;;;10.24;100.00
5595;BME280;1003;48.002;7.788;2024-01-25T00:51:00;101396.53;;;10.24;100.00
5595;BME280;1003;48.002;7.788;2024-01-25T00:53:28;101391.44;;;10.23;100.00
5595;BME280;1003;48.002;7.788;2024-01-25T00:55:56;101395.66;;;10.24;100.00
5595;BME280;1003;48.002;7.788;2024-01-25T00:58:23;101394.88;;;10.27;100.00
5595;BME280;1003;48.002;7.788;2024-01-25T01:00:51;101387.34;;;10.27;100.00
5595;BME280;1003;48.002;7.788;2024-01-25T01:03:19;101389.97;;;10.30;100.00
5595;BME280;1003;48.002;7.788;2024-01-25T01:05:46;101374.88;;;10.30;100.00
5595;BME280;1003;48.002;7.788;2024-01-25T01:08:15;101373.19;;;10.29;100.00
5595;BME280;1003;48.002;7.788;2024-01-25T01:10:43;101361.41;;;10.28;100.00
5595;BME280;1003;48.002;7.788;2024-01-25T01:13:10;101363.88;;;10.26;100.00
5595;BME280;1003;48.002;7.788;2024-01-25T01:15:36;101353.72;;;10.23;100.00
5595;BME280;1003;48.002;7.788;2024-01-25T01:18:04;101351.34;;;10.28;100.00
5595;BME280;1003;48.002;7.788;2024-01-25T01:20:31;101345.34;;;10.22;100.00
5595;BME280;1003;48.002;7.788;2024-01-25T01:22:58;101341.16;;;10.23;100.00
5595;BME280;1003;48.002;7.788;2024-01-25T01:25:26;101339.41;;;10.20;100.00
5595;BME280;1003;48.002;7.788;2024-01-25T01:27:53;101337.69;;;10.18;100.00
5595;BME280;1003;48.002;7.788;2024-01-25T01:30:21;101345.13;;;10.15;100.00
5595;BME280;1003;48.002;7.788;2024-01-25T01:32:48;101330.06;;;10.16;100.00
5595;BME280;1003;48.002;7.788;2024-01-25T01:35:15;101324.31;;;10.20;100.00
5595;BME280;1003;48.002;7.788;2024-01-25T01:37:42;101321.78;;;10.19;100.00
5595;BME280;1003;48.002;7.788;2024-01-25T01:40:10;101325.00;;;10.13;100.00
5595;BME280;1003;48.002;7.788;2024-01-25T01:42:38;101325.72;;;10.09;100.00
5595;BME280;1003;48.002;7.788;2024-01-25T01:45:06;101331.53;;;10.07;100.00
5595;BME280;1003;48.002;7.788;2024-01-25T01:47:34;101337.38;;;10.07;100.00
5595;BME280;1003;48.002;7.788;2024-01-25T01:50:01;101325.63;;;10.06;100.00
5595;BME280;1003;48.002;7.788;2024-01-25T01:52:28;101345.91;;;10.12;100.00
5595;BME280;1003;48.002;7.788;2024-01-25T01:54:56;101349.97;;;10.07;100.00
5595;BME280;1003;48.002;7.788;2024-01-25T01:57:23;101353.34;;;10.09;100.00
5595;BME280;1003;48.002;7.788;2024-01-25T01:59:53;101356.66;;;10.07;100.00
5595;BME280;1003;48.002;7.788;2024-01-25T02:02:20;101355.72;;;10.05;100.00
5595;BME280;1003;48.002;7.788;2024-01-25T02:04:49;101358.97;;;10.00;100.00
5595;BME280;1003;48.002;7.788;2024-01-25T02:07:16;101361.41;;;9.97;100.00
5595;BME280;1003;48.002;7.788;2024-01-25T02:09:43;101368.84;;;9.94;100.00
5595;BME280;1003;48.002;7.788;2024-01-25T02:12:10;101361.41;;;9.97;100.00
5595;BME280;1003;48.002;7.788;2024-01-25T02:14:37;101374.72;;;9.95;100.00
5595;BME280;1003;48.002;7.788;2024-01-25T02:17:05;101367.13;;;9.92;100.00
5595;BME280;1003;48.002;7.788;2024-01-25T02:19:32;101378.88;;;9.93;100.00
5595;BME280;1003;48.002;7.788;2024-01-25T02:21:59;101381.72;;;10.05;100.00
5595;BME280;1003;48.002;7.788;2024-01-25T02:24:27;101400.03;;;10.01;100.00
5595;BME280;1003;48.002;7.788;2024-01-25T02:26:54;101409.97;;;9.96;100.00
5595;BME280;1003;48.002;7.788;2024-01-25T02:29:21;101414.81;;;9.90;100.00
5595;BME280;1003;48.002;7.788;2024-01-25T02:35:29;101441.47;;;9.85;100.00
5595;BME280;1003;48.002;7.788;2024-01-25T02:37:56;101455.69;;;9.85;100.00
5595;BME280;1003;48.002;7.788;2024-01-25T02:40:24;101477.38;;;9.83;100.00
5595;BME280;1003;48.002;7.788;2024-01-25T02:42:51;101485.72;;;9.82;100.00
5595;BME280;1003;48.002;7.788;2024-01-25T02:45:18;101491.44;;;9.78;100.00
5595;BME280;1003;48.002;7.788;2024-01-25T02:47:45;101500.56;;;9.74;100.00
5595;BME280;1003;48.002;7.788;2024-01-25T02:50:12;101504.66;;;9.72;100.00
5595;BME280;1003;48.002;7.788;2024-01-25T02:52:40;101513.75;;;9.68;100.00
5595;BME280;1003;48.002;7.788;2024-01-25T02:55:08;101520.41;;;9.66;100.00
5595;BME280;1003;48.002;7.788;2024-01-25T02:57:36;101530.50;;;9.68;100.00
5595;BME280;1003;48.002;7.788;2024-01-25T03:00:04;101550.53;;;9.66;100.00
5595;BME280;1003;48.002;7.788;2024-01-25T03:02:32;101575.66;;;9.66;100.00
5595;BME280;1003;48.002;7.788;2024-01-25T03:04:58;101603.31;;;9.68;100.00
5595;BME280;1003;48.002;7.788;2024-01-25T03:07:25;101632.59;;;9.67;100.00
5595;BME280;1003;48.002;7.788;2024-01-25T03:09:53;101644.25;;;9.65;100.00
5595;BME280;1003;48.002;7.788;2024-01-25T03:12:20;101660.06;;;9.63;100.00
5595;BME280;1003;48.002;7.788;2024-01-25T03:14:48;101686.78;;;9.61;100.00
5595;BME280;1003;48.002;7.788;2024-01-25T03:17:15;101679.94;;;9.57;100.00
5595;BME280;1003;48.002;7.788;2024-01-25T03:19:42;101715.94;;;9.57;100.00
5595;BME280;1003;48.002;7.788;2024-01-25T03:22:09;101737.59;;;9.54;100.00
5595;BME280;1003;48.002;7.788;2024-01-25T03:24:37;101759.28;;;9.52;100.00
5595;BME280;1003;48.002;7.788;2024-01-25T03:27:05;101766.81;;;9.52;100.00
5595;BME280;1003;48.002;7.788;2024-01-25T03:29:40;101781.78;;;9.49;100.00
5595;BME280;1003;48.002;7.788;2024-01-25T03:32:09;101800.16;;;9.48;100.00
5595;BME280;1003;48.002;7.788;2024-01-25T03:34:36;101819.31;;;9.45;100.00
5595;BME280;1003;48.002;7.788;2024-01-25T03:37:03;101838.53;;;9.45;100.00
5595;BME280;1003;48.002;7.788;2024-01-25T03:39:31;101846.88;;;9.44;100.00
5595;BME280;1003;48.002;7.788;2024-01-25T03:41:57;101844.31;;;9.42;100.00
5595;BME280;1003;48.002;7.788;2024-01-25T03:44:25;101882.06;;;9.45;100.00
5595;BME280;1003;48.002;7.788;2024-01-25T03:46:51;101928.91;;;9.66;100.00
5595;BME280;1003;48.002;7.788;2024-01-25T03:49:20;101950.75;;;9.68;100.00
5595;BME280;1003;48.002;7.788;2024-01-25T03:51:48;101960.88;;;9.70;100.00
5595;BME280;1003;48.002;7.788;2024-01-25T03:54:16;101987.69;;;9.71;100.00
5595;BME280;1003;48.002;7.788;2024-01-25T03:56:43;102006.81;;;9.67;100.00
5595;BME280;1003;48.002;7.788;2024-01-25T03:59:10;102020.22;;;9.68;100.00
5595;BME280;1003;48.002;7.788;2024-01-25T04:01:43;102032.47;;;9.60;100.00
5595;BME280;1003;48.002;7.788;2024-01-25T04:04:11;102036.41;;;9.54;100.00
5595;BME280;1003;48.002;7.788;2024-01-25T04:06:42;102049.69;;;9.51;100.00
5595;BME280;1003;48.002;7.788;2024-01-25T04:09:09;102082.84;;;9.63;100.00
5595;BME280;1003;48.002;7.788;2024-01-25T04:11:37;102090.91;;;9.56;100.00
5595;BME280;1003;48.002;7.788;2024-01-25T04:14:05;102100.44;;;9.44;100.00
5595;BME280;1003;48.002;7.788;2024-01-25T04:16:32;102112.75;;;9.38;100.00
5595;BME280;1003;48.002;7.788;2024-01-25T04:19:00;102119.22;;;9.33;100.00
5595;BME280;1003;48.002;7.788;2024-01-25T04:21:27;102128.28;;;9.29;100.00
5595;BME280;1003;48.002;7.788;2024-01-25T04:23:55;102143.13;;;9.25;100.00
5595;BME280;1003;48.002;7.788;2024-01-25T04:26:22;102163.69;;;9.16;100.00
5595;BME280;1003;48.002;7.788;2024-01-25T04:28:49;102173.50;;;9.11;100.00
5595;BME280;1003;48.002;7.788;2024-01-25T04:31:16;102187.63;;;9.09;100.00
5595;BME280;1003;48.002;7.788;2024-01-25T04:33:43;102205.88;;;9.05;100.00
5595;BME280;1003;48.002;7.788;2024-01-25T04:36:10;102242.72;;;9.06;100.00
5595;BME280;1003;48.002;7.788;2024-01-25T04:38:36;102260.84;;;9.01;100.00
5595;BME280;1003;48.002;7.788;2024-01-25T04:41:05;102282.44;;;8.97;100.00
5595;BME280;1003;48.002;7.788;2024-01-25T04:43:34;102302.38;;;8.94;100.00
5595;BME280;1003;48.002;7.788;2024-01-25T04:46:02;102330.19;;;8.99;100.00
5595;BME280;1003;48.002;7.788;2024-01-25T04:48:29;102382.66;;;8.94;100.00
5595;BME280;1003;48.002;7.788;2024-01-25T04:50:56;102429.25;;;8.89;100.00
5595;BME280;1003;48.002;7.788;2024-01-25T04:53:24;102442.69;;;8.91;100.00
5595;BME280;1003;48.002;7.788;2024-01-25T04:55:51;102448.28;;;8.85;100.00
5595;BME280;1003;48.002;7.788;2024-01-25T04:58:19;102454.66;;;8.79;100.00
5595;BME280;1003;48.002;7.788;2024-01-25T05:00:46;102473.94;;;8.80;100.00
5595;BME280;1003;48.002;7.788;2024-01-25T05:03:13;102488.81;;;8.77;100.00
5595;BME280;1003;48.002;7.788;2024-01-25T05:05:40;102504.66;;;8.76;100.00
5595;BME280;1003;48.002;7.788;2024-01-25T05:08:07;102520.31;;;8.72;100.00
5595;BME280;1003;48.002;7.788;2024-01-25T05:10:33;102546.19;;;8.71;100.00
5595;BME280;1003;48.002;7.788;2024-01-25T05:13:00;102543.44;;;8.66;100.00
5595;BME280;1003;48.002;7.788;2024-01-25T05:15:29;102570.94;;;8.64;100.00
5595;BME280;1003;48.002;7.788;2024-01-25T05:17:56;102581.78;;;8.63;100.00
5595;BME280;1003;48.002;7.788;2024-01-25T05:20:22;102595.25;;;8.65;100.00
5595;BME280;1003;48.002;7.788;2024-01-25T05:22:54;102612.78;;;8.65;100.00
5595;BME280;1003;48.002;7.788;2024-01-25T05:25:21;102639.63;;;8.66;100.00
5595;BME280;1003;48.002;7.788;2024-01-25T05:27:48;102652.06;;;8.65;100.00
5595;BME280;1003;48.002;7.788;2024-01-25T05:30:15;102669.47;;;8.62;100.00
5595;BME280;1003;48.002;7.788;2024-01-25T05:32:44;102695.56;;;8.65;100.00
5595;BME280;1003;48.002;7.788;2024-01-25T05:35:11;102712.25;;;8.65;100.00
5595;BME280;1003;48.002;7.788;2024-01-25T05:37:38;102716.31;;;8.63;100.00
5595;BME280;1003;48.002;7.788;2024-01-25T05:40:07;102723.41;;;8.55;100.00
5595;BME280;1003;48.002;7.788;2024-01-25T05:42:35;102724.97;;;8.53;100.00
5595;BME280;1003;48.002;7.788;2024-01-25T05:45:02;102730.00;;;8.53;100.00
5595;BME280;1003;48.002;7.788;2024-01-25T05:47:29;102738.31;;;8.52;100.00
5595;BME280;1003;48.002;7.788;2024-01-25T05:49:57;102744.91;;;8.50;100.00
5595;BME280;1003;48.002;7.788;2024-01-25T05:52:25;102749.72;;;8.47;100.00
5595;BME280;1003;48.002;7.788;2024-01-25T05:54:52;102754.72;;;8.47;100.00
5595;BME280;1003;48.002;7.788;2024-01-25T05:57:19;102772.38;;;8.49;100.00
5595;BME280;1003;48.002;7.788;2024-01-25T05:59:46;102804.09;;;8.48;100.00
5595;BME280;1003;48.002;7.788;2024-01-25T06:02:13;102800.66;;;8.46;100.00
5595;BME280;1003;48.002;7.788;2024-01-25T06:04:41;102816.47;;;8.45;100.00
5595;BME280;1003;48.002;7.788;2024-01-25T06:07:09;102823.72;;;8.40;100.00
5595;BME280;1003;48.002;7.788;2024-01-25T06:09:36;102838.94;;;8.44;100.00
5595;BME280;1003;48.002;7.788;2024-01-25T06:12:04;102843.69;;;8.39;100.00
5595;BME280;1003;48.002;7.788;2024-01-25T06:14:31;102853.63;;;8.37;100.00
5595;BME280;1003;48.002;7.788;2024-01-25T06:16:58;102868.59;;;8.36;100.00
5595;BME280;1003;48.002;7.788;2024-01-25T06:19:25;102888.63;;;8.36;100.00
5595;BME280;1003;48.002;7.788;2024-01-25T06:21:52;102894.41;;;8.35;100.00
5595;BME280;1003;48.002;7.788;2024-01-25T06:24:20;102899.41;;;8.35;100.00
5595;BME280;1003;48.002;7.788;2024-01-25T06:26:47;102907.69;;;8.34;100.00
5595;BME280;1003;48.002;7.788;2024-01-25T06:29:14;102922.66;;;8.32;100.00
5595;BME280;1003;48.002;7.788;2024-01-25T06:31:42;102934.22;;;8.30;100.00
5595;BME280;1003;48.002;7.788;2024-01-25T06:34:10;102943.41;;;8.30;100.00
5595;BME280;1003;48.002;7.788;2024-01-25T06:36:37;102958.44;;;8.30;100.00
5595;BME280;1003;48.002;7.788;2024-01-25T06:39:04;102965.84;;;8.28;100.00
5595;BME280;1003;48.002;7.788;2024-01-25T06:41:33;102978.28;;;8.27;100.00
5595;BME280;1003;48.002;7.788;2024-01-25T06:44:00;102986.69;;;8.27;100.00
5595;BME280;1003;48.002;7.788;2024-01-25T06:46:28;103000.84;;;8.27;100.00
5595;BME280;1003;48.002;7.788;2024-01-25T06:48:55;103004.13;;;8.26;100.00
5595;BME280;1003;48.002;7.788;2024-01-25T06:51:22;103010.78;;;8.25;100.00
5595;BME280;1003;48.002;7.788;2024-01-25T06:53:49;103020.91;;;8.27;100.00
5595;BME280;1003;48.002;7.788;2024-01-25T06:56:16;103027.66;;;8.28;100.00
5595;BME280;1003;48.002;7.788;2024-01-25T06:58:45;103036.81;;;8.27;100.00
5595;BME280;1003;48.002;7.788;2024-01-25T07:01:12;103045.19;;;8.28;100.00
5595;BME280;1003;48.002;7.788;2024-01-25T07:03:39;103055.13;;;8.26;100.00
5595;BME280;1003;48.002;7.788;2024-01-25T07:06:06;103064.38;;;8.27;100.00
5595;BME280;1003;48.002;7.788;2024-01-25T07:08:33;103087.06;;;8.29;100.00
5595;BME280;1003;48.002;7.788;2024-01-25T07:11:00;103088.00;;;8.31;100.00
5595;BME280;1003;48.002;7.788;2024-01-25T07:13:27;103094.75;;;8.32;100.00
5595;BME280;1003;48.002;7.788;2024-01-25T07:15:56;103109.25;;;8.36;100.00
5595;BME280;1003;48.002;7.788;2024-01-25T07:18:23;103104.13;;;8.34;100.00
5595;BME280;1003;48.002;7.788;2024-01-25T07:20:50;103104.97;;;8.35;100.00
5595;BME280;1003;48.002;7.788;2024-01-25T07:23:17;103116.78;;;8.36;100.00
5595;BME280;1003;48.002;7.788;2024-01-25T07:25:44;103123.50;;;8.37;100.00
5595;BME280;1003;48.002;7.788;2024-01-25T07:28:11;103132.69;;;8.36;100.00
5595;BME280;1003;48.002;7.788;2024-01-25T07:30:38;103143.56;;;8.37;100.00
5595;BME280;1003;48.002;7.788;2024-01-25T07:33:07;103150.31;;;8.38;100.00
5595;BME280;1003;48.002;7.788;2024-01-25T07:35:34;103171.25;;;8.38;100.00
5595;BME280;1003;48.002;7.788;2024-01-25T07:38:01;103166.91;;;8.36;100.00
5595;BME280;1003;48.002;7.788;2024-01-25T07:40:28;103174.81;;;8.42;100.00
5595;BME280;1003;48.002;7.788;2024-01-25T07:42:54;103183.41;;;8.46;100.00
5595;BME280;1003;48.002;7.788;2024-01-25T07:45:21;103186.88;;;8.48;100.00
5595;BME280;1003;48.002;7.788;2024-01-25T07:47:48;103191.41;;;8.53;100.00
5595;BME280;1003;48.002;7.788;2024-01-25T07:50:17;103200.84;;;8.57;100.00
5595;BME280;1003;48.002;7.788;2024-01-25T07:52:44;103219.75;;;8.65;100.00
5595;BME280;1003;48.002;7.788;2024-01-25T07:55:11;103208.97;;;8.66;100.00
5595;BME280;1003;48.002;7.788;2024-01-25T07:57:38;103211.72;;;8.71;100.00
5595;BME280;1003;48.002;7.788;2024-01-25T08:00:06;103217.03;;;8.76;100.00
5595;BME280;1003;48.002;7.788;2024-01-25T08:02:34;103225.63;;;8.79;100.00
5595;BME280;1003;48.002;7.788;2024-01-25T08:05:02;103208.75;;;8.77;100.00
5595;BME280;1003;48.002;7.788;2024-01-25T08:07:30;103209.22;;;8.84;100.00
5595;BME280;1003;48.002;7.788;2024-01-25T08:09:57;103210.97;;;8.85;100.00
5595;BME280;1003;48.002;7.788;2024-01-25T08:12:24;103198.72;;;8.90;100.00
5595;BME280;1003;48.002;7.788;2024-01-25T08:14:52;103185.75;;;8.97;100.00
5595;BME280;1003;48.002;7.788;2024-01-25T08:17:19;103173.56;;;9.03;100.00
5595;BME280;1003;48.002;7.788;2024-01-25T08:19:46;103153.78;;;9.08;100.00
5595;BME280;1003;48.002;7.788;2024-01-25T08:22:13;103143.94;;;9.11;100.00
5595;BME280;1003;48.002;7.788;2024-01-25T08:24:41;103135.88;;;9.16;100.00
5595;BME280;1003;48.002;7.788;2024-01-25T08:27:09;103127.16;;;9.25;100.00
5595;BME280;1003;48.002;7.788;2024-01-25T08:29:36;103119.91;;;9.29;100.00
5595;BME280;1003;48.002;7.788;2024-01-25T08:32:04;103118.38;;;9.31;100.00
5595;BME280;1003;48.002;7.788;2024-01-25T08:34:31;103107.81;;;9.37;100.00
5595;BME280;1003;48.002;7.788;2024-01-25T08:36:58;103093.59;;;9.37;100.00
5595;BME280;1003;48.002;7.788;2024-01-25T08:39:24;103084.78;;;9.44;100.00
5595;BME280;1003;48.002;7.788;2024-01-25T08:41:53;103071.69;;;9.50;100.00
5595;BME280;1003;48.002;7.788;2024-01-25T08:44:20;103061.13;;;9.55;100.00
5595;BME280;1003;48.002;7.788;2024-01-25T08:46:47;103052.41;;;9.63;100.00
5595;BME280;1003;48.002;7.788;2024-01-25T08:49:14;103030.88;;;9.68;100.00
5595;BME280;1003;48.002;7.788;2024-01-25T08:51:41;103030.78;;;9.82;100.00
5595;BME280;1003;48.002;7.788;2024-01-25T08:54:08;103024.09;;;9.97;100.00
5595;BME280;1003;48.002;7.788;2024-01-25T08:56:34;103008.63;;;10.06;100.00
5595;BME280;1003;48.002;7.788;2024-01-25T08:59:03;103005.91;;;10.17;100.00
5595;BME280;1003;48.002;7.788;2024-01-25T09:01:30;102984.41;;;10.22;100.00
5595;BME280;1003;48.002;7.788;2024-01-25T09:03:56;102967.69;;;10.39;100.00
5595;BME280;1003;48.002;7.788;2024-01-25T09:06:28;102926.59;;;10.39;100.00
5595;BME280;1003;48.002;7.788;2024-01-25T09:08:55;102908.00;;;10.53;100.00
5595;BME280;1003;48.002;7.788;2024-01-25T09:11:22;102868.16;;;10.61;100.00
5595;BME280;1003;48.002;7.788;2024-01-25T09:13:49;102836.38;;;10.63;100.00
5595;BME280;1003;48.002;7.788;2024-01-25T09:16:17;102783.75;;;10.67;100.00
5595;BME280;1003;48.002;7.788;2024-01-25T09:18:44;102758.59;;;10.67;100.00
5595;BME280;1003;48.002;7.788;2024-01-25T09:21:11;102701.59;;;10.68;100.00
5595;BME280;1003;48.002;7.788;2024-01-25T09:23:38;102651.47;;;10.72;100.00
5595;BME280;1003;48.002;7.788;2024-01-25T09:26:05;102573.00;;;10.62;100.00
5595;BME280;1003;48.002;7.788;2024-01-25T09:28:32;102499.03;;;10.58;100.00
5595;BME280;1003;48.002;7.788;2024-01-25T09:30:59;102433.53;;;10.55;100.00
5595;BME280;1003;48.002;7.788;2024-01-25T09:33:28;102384.84;;;10.55;100.00
5595;BME280;1003;48.002;7.788;2024-01-25T09:35:55;102327.28;;;10.61;100.00
5595;BME280;1003;48.002;7.788;2024-01-25T09:38:22;102260.13;;;10.60;100.00
5595;BME280;1003;48.002;7.788;2024-01-25T09:40:50;102201.38;;;10.58;100.00
5595;BME280;1003;48.002;7.788;2024-01-25T09:43:17;102163.69;;;10.59;100.00
5595;BME280;1003;48.002;7.788;2024-01-25T09:45:48;102105.50;;;10.50;100.00
5595;BME280;1003;48.002;7.788;2024-01-25T09:48:19;102058.03;;;10.59;100.00
5595;BME280;1003;48.002;7.788;2024-01-25T09:50:48;102030.81;;;10.71;100.00
5595;BME280;1003;48.002;7.788;2024-01-25T09:53:21;101993.72;;;10.90;100.00
5595;BME280;1003;48.002;7.788;2024-01-25T09:55:57;101937.19;;;10.80;100.00
5595;BME280;1003;48.002;7.788;2024-01-25T09:58:36;101897.19;;;10.88;100.00
5595;BME280;1003;48.002;7.788;2024-01-25T10:01:06;101847.91;;;10.94;100.00
5595;BME280;1003;48.002;7.788;2024-01-25T10:03:34;101818.78;;;11.02;100.00
5595;BME280;1003;48.002;7.788;2024-01-25T10:06:05;101775.63;;;11.19;100.00
5595;BME280;1003;48.002;7.788;2024-01-25T10:08:33;101737.25;;;11.26;100.00
5595;BME280;1003;48.002;7.788;2024-01-25T10:11:00;101700.59;;;11.36;100.00
5595;BME280;1003;48.002;7.788;2024-01-25T10:13:27;101684.00;;;11.44;100.00
5595;BME280;1003;48.002;7.788;2024-01-25T10:15:54;101649.97;;;11.58;100.00
5595;BME280;1003;48.002;7.788;2024-01-25T10:18:22;101631.97;;;11.77;100.00
5595;BME280;1003;48.002;7.788;2024-01-25T10:20:50;101602.78;;;11.84;100.00
5595;BME280;1003;48.002;7.788;2024-01-25T10:23:18;101565.75;;;11.81;100.00
5595;BME280;1003;48.002;7.788;2024-01-25T10:25:45;101526.09;;;11.74;100.00
5595;BME280;1003;48.002;7.788;2024-01-25T10:28:12;101499.78;;;11.63;100.00
5595;BME280;1003;48.002;7.788;2024-01-25T10:30:39;101476.19;;;11.60;100.00
5595;BME280;1003;48.002;7.788;2024-01-25T10:33:09;101478.53;;;11.52;100.00
5595;BME280;1003;48.002;7.788;2024-01-25T10:35:37;101467.34;;;11.41;100.00
5595;BME280;1003;48.002;7.788;2024-01-25T10:38:05;101365.41;;;11.23;100.00
5595;BME280;1003;48.002;7.788;2024-01-25T10:40:33;101346.66;;;11.09;100.00
5595;BME280;1003;48.002;7.788;2024-01-25T10:43:00;101347.41;;;11.07;100.00
5595;BME280;1003;48.002;7.788;2024-01-25T10:45:27;101321.25;;;11.00;100.00
5595;BME280;1003;48.002;7.788;2024-01-25T10:47:55;101309.75;;;11.10;100.00
5595;BME280;1003;48.002;7.788;2024-01-25T10:50:22;101299.97;;;11.23;100.00
5595;BME280;1003;48.002;7.788;2024-01-25T10:52:51;101275.94;;;11.38;100.00
5595;BME280;1003;48.002;7.788;2024-01-25T10:55:19;101284.63;;;11.52;100.00
5595;BME280;1003;48.002;7.788;2024-01-25T10:57:48;101281.50;;;11.65;100.00
5595;BME280;1003;48.002;7.788;2024-01-25T11:00:16;101274.03;;;11.70;100.00
5595;BME280;1003;48.002;7.788;2024-01-25T11:02:44;101279.22;;;11.77;100.00
5595;BME280;1003;48.002;7.788;2024-01-25T11:05:14;101269.91;;;11.73;100.00
5595;BME280;1003;48.002;7.788;2024-01-25T11:07:42;101248.03;;;11.71;100.00
5595;BME280;1003;48.002;7.788;2024-01-25T11:10:18;101254.66;;;11.67;100.00
5595;BME280;1003;48.002;7.788;2024-01-25T11:12:56;101247.19;;;11.70;100.00
5595;BME280;1003;48.002;7.788;2024-01-25T11:15:30;101240.56;;;11.75;100.00
5595;BME280;1003;48.002;7.788;2024-01-25T11:17:58;101232.06;;;11.70;100.00
5595;BME280;1003;48.002;7.788;2024-01-25T11:20:27;101217.69;;;11.65;100.00
5595;BME280;1003;48.002;7.788;2024-01-25T11:22:59;101210.78;;;11.54;100.00
5595;BME280;1003;48.002;7.788;2024-01-25T11:25:30;101204.88;;;11.54;100.00
5595;BME280;1003;48.002;7.788;2024-01-25T11:28:00;101191.44;;;11.53;100.00
5595;BME280;1003;48.002;7.788;2024-01-25T11:30:30;101183.88;;;11.52;100.00
5595;BME280;1003;48.002;7.788;2024-01-25T11:32:57;101182.97;;;11.48;100.00
5595;BME280;1003;48.002;7.788;2024-01-25T11:35:24;101179.50;;;11.42;100.00
5595;BME280;1003;48.002;7.788;2024-01-25T11:37:51;101175.31;;;11.42;100.00
5595;BME280;1003;48.002;7.788;2024-01-25T11:40:19;101166.16;;;11.47;100.00
5595;BME280;1003;48.002;7.788;2024-01-25T11:42:49;101163.72;;;11.52;100.00
5595;BME280;1003;48.002;7.788;2024-01-25T11:45:18;101160.41;;;11.54;100.00
5595;BME280;1003;48.002;7.788;2024-01-25T11:47:45;101151.44;;;11.69;100.00
5595;BME280;1003;48.002;7.788;2024-01-25T11:50:12;101389.28;;;11.78;100.00
5595;BME280;1003;48.002;7.788;2024-01-25T11:52:39;101398.53;;;11.79;100.00
5595;BME280;1003;48.002;7.788;2024-01-25T11:55:09;101391.00;;;11.81;100.00
5595;BME280;1003;48.002;7.788;2024-01-25T11:57:38;101390.41;;;11.91;100.00
5595;BME280;1003;48.002;7.788;2024-01-25T12:00:10;101386.31;;;11.96;100.00
5595;BME280;1003;48.002;7.788;2024-01-25T12:02:41;101385.91;;;12.20;100.00
5595;BME280;1003;48.002;7.788;2024-01-25T12:05:10;101391.06;;;12.26;100.00
5595;BME280;1003;48.002;7.788;2024-01-25T12:07:39;101383.63;;;12.32;100.00
5595;BME280;1003;48.002;7.788;2024-01-25T12:10:10;101380.56;;;12.49;100.00
5595;BME280;1003;48.002;7.788;2024-01-25T12:12:41;101380.50;;;12.47;100.00
5595;BME280;1003;48.002;7.788;2024-01-25T12:15:08;101377.88;;;12.40;100.00
5595;BME280;1003;48.002;7.788;2024-01-25T12:17:36;101367.06;;;12.47;100.00
5595;BME280;1003;48.002;7.788;2024-01-25T12:20:07;101362.84;;;12.46;100.00
5595;BME280;1003;48.002;7.788;2024-01-25T12:22:36;101360.28;;;12.44;100.00
5595;BME280;1003;48.002;7.788;2024-01-25T12:25:07;101354.41;;;12.44;100.00
5595;BME280;1003;48.002;7.788;2024-01-25T12:27:35;101347.50;;;12.33;100.00
5595;BME280;1003;48.002;7.788;2024-01-25T12:30:04;101333.88;;;12.24;100.00
5595;BME280;1003;48.002;7.788;2024-01-25T12:32:31;101325.41;;;12.20;100.00
5595;BME280;1003;48.002;7.788;2024-01-25T12:35:00;101323.13;;;12.34;100.00
5595;BME280;1003;48.002;7.788;2024-01-25T12:37:28;101324.13;;;12.44;100.00
5595;BME280;1003;48.002;7.788;2024-01-25T12:39:55;101315.03;;;12.53;100.00
5595;BME280;1003;48.002;7.788;2024-01-25T12:42:23;101316.09;;;12.66;100.00
5595;BME280;1003;48.002;7.788;2024-01-25T12:44:53;101307.19;;;12.90;100.00
5595;BME280;1003;48.002;7.788;2024-01-25T12:47:20;101318.16;;;12.92;100.00
5595;BME280;1003;48.002;7.788;2024-01-25T12:49:48;101302.97;;;12.88;100.00
5595;BME280;1003;48.002;7.788;2024-01-25T12:52:15;101299.63;;;12.91;100.00
5595;BME280;1003;48.002;7.788;2024-01-25T12:54:43;101294.63;;;12.96;100.00
5595;BME280;1003;48.002;7.788;2024-01-25T12:57:10;101289.63;;;12.97;100.00
5595;BME280;1003;48.002;7.788;2024-01-25T12:59:37;101280.25;;;12.88;100.00
5595;BME280;1003;48.002;7.788;2024-01-25T13:02:05;101280.94;;;12.80;100.00
5595;BME280;1003;48.002;7.788;2024-01-25T13:04:33;101281.03;;;12.84;100.00
5595;BME280;1003;48.002;7.788;2024-01-25T13:07:00;101278.59;;;12.91;100.00
5595;BME280;1003;48.002;7.788;2024-01-25T13:09:28;101265.97;;;12.91;100.00
5595;BME280;1003;48.002;7.788;2024-01-25T13:11:56;101270.84;;;12.78;100.00